Domov               UVHVVR             MKGP            O straneh              
ZDRAVSTVENO VARSTVO RASTLIN
  MREŽA AGROMET. POSTAJ
 ► PROGNOSTIČNA OBVESTILA
AGROMETEOROLOŠKI PODATKI -
ARSO
OBVLADOVANJE TVEGANJ ZARADI
NEUGODNIH VREMENSKIH RAZMER
  ► NARAVNE NESREČE
  ► SUŠA/MOČA
  ► NAMAKANJE
  ► ŽLED (gozdarstvo)
KARTOGRAFSKI PRIKAZI
SPLETNE POVEZAVE
PROJEKTI IN PUBLIKACIJE

AGROMETEOROLOŠKA MREŽA: VREMENSKE POSTAJE IN FENOLOŠKA OPAZOVANJA

Pregled podatkov za lokacijo Maribor - BTŠ, meteorološka postaja 35810

Pregled senzorjev na lokaciji

ID Ime Zadnja
vrednost
Datum
zadnje
spremembe
Tip
senzorja
1721 Temperatura 2 m ( °C) 18,71 °C 18.10.2017 18:00 Generic -40 - +60 °C
1722 Relativna vlaga 2 m (% RH) 49,94 % RH 18.10.2017 17:59 Generic 0 - 100 %
1723 Padavine 0.2 mm (mm) 0 mm 18.10.2017 17:59 Generic 0.2 mm
1724 Omočenost lista (U) 0 U 18.10.2017 18:00 A730WET

Pregled podatkov zadnjih 24 ur

Zap.
št.
Datum in čas Maribor - BTŠ
Omočenost
lista
Padavine
0.2
mm
Relativna
vlaga
2
m
Temperatura
2
m
0 18.10.2017 17:00 0 0 49,94 18,71
1 18.10.2017 16:30 0 0 34,63 22,22
2 18.10.2017 16:00 0 0 30,7 23,22
3 18.10.2017 15:30 0 0 29,89 23,83
4 18.10.2017 15:00 0 0 29,47 24,25
5 18.10.2017 14:30 0 0 27,47 25,08
6 18.10.2017 14:00 0 0 27,18 24,79
7 18.10.2017 13:30 0 0 29,33 24,03
8 18.10.2017 13:00 0 0 31,99 23,74
9 18.10.2017 12:30 0 0 37,31 23,2
10 18.10.2017 12:00 0 0 46,54 22,3
11 18.10.2017 11:30 0 0 49,87 21,25
12 18.10.2017 11:00 0 0 50,94 20,37
13 18.10.2017 10:30 0 0 57,88 18,61
14 18.10.2017 10:00 0 0 65,74 16,56
15 18.10.2017 09:30 0 0 68,35 15,82
16 18.10.2017 09:00 0 0 73,99 14,36
17 18.10.2017 08:30 0 0 86,64 12,16
18 18.10.2017 08:00 0 0 99,93 9,62
19 18.10.2017 07:30 0 0 99,93 7,5
20 18.10.2017 07:00 0 0 99,93 6,69
21 18.10.2017 06:30 0 0 99,93 6,74
22 18.10.2017 06:00 0 0 99,93 7,33
23 18.10.2017 05:30 0 0 99,93 7,67
24 18.10.2017 05:00 0 0 99,93 8,25
25 18.10.2017 04:30 0 0 99,93 8,6
26 18.10.2017 04:00 0 0 99,93 7,99
27 18.10.2017 03:30 0 0 99,93 8,25
28 18.10.2017 03:00 0 0 99,93 9,26
29 18.10.2017 02:30 0 0 99,93 10,06
30 18.10.2017 02:00 0 0 99,93 9,77
31 18.10.2017 01:30 0 0 99,76 10,48
32 18.10.2017 01:00 0 0 99,93 10,5
33 18.10.2017 00:30 0 0 99,93 10,09
34 18.10.2017 00:00 0 0 99,93 9,21
35 17.10.2017 23:30 0 0 99,93 9,94
36 17.10.2017 23:00 0 0 96,12 11,4
37 17.10.2017 22:30 0 0 99,93 11,06
38 17.10.2017 22:00 0 0 99,93 9,79
39 17.10.2017 21:30 0 0 99,93 10,04
40 17.10.2017 21:00 0 0 99,93 10,79
41 17.10.2017 20:30 0 0 99,93 11,11
42 17.10.2017 20:00 0 0 99,93 11,21
43 17.10.2017 19:30 0 0 99,9 11,94
44 17.10.2017 19:00 0 0 94,55 12,97
45 17.10.2017 18:30 0 0 87,45 14,04
© 2011 Ministrstvo za kmetijstvo, gozdarstvo in prehrano. Vse pravice pridržane.